| Date | Time | Temp. (oF) | Dew Point (oF) | Rel. Hum. (%) | Press. (in.) | Wind Dir. | Wind Speed (mph) | Hourly Rainfall (in.) |
|
|---|---|---|---|---|---|---|---|---|---|
| 1 | 03/07 | 00:00 | 35 | 31 | 86 | 30.56 | SSE | 8 | 0.00 |
| 2 | 03/06 | 23:00 | 35 | 29 | 79 | 30.57 | SE | 7 | 0.00 |
| 3 | 03/06 | 22:00 | 36 | 28 | 73 | 30.58 | SSE | 8 | 0.00 |
| 4 | 03/06 | 21:00 | 36 | 26 | 68 | 30.58 | SSE | 7 | 0.00 |
| 5 | 03/06 | 20:00 | 37 | 24 | 61 | 30.57 | S | 6 | 0.00 |
| 6 | 03/06 | 19:00 | 37 | 22 | 56 | 30.56 | S | 8 | 0.00 |
| 7 | 03/06 | 18:00 | 40 | 23 | 51 | 30.55 | S | 9 | 0.00 |
| 8 | 03/06 | 17:00 | 43 | 21 | 43 | 30.53 | SSE | 7 | 0.00 |
| 9 | 03/06 | 16:00 | 44 | 19 | 37 | 30.52 | SSE | 6 | 0.00 |
| 10 | 03/06 | 15:00 | 44 | 20 | 39 | 30.54 | S | 11 | 0.00 |
| 11 | 03/06 | 14:00 | 42 | 18 | 39 | 30.56 | SSE | 11 | 0.00 |
| 12 | 03/06 | 13:00 | 40 | 19 | 43 | 30.60 | S | 7 | 0.00 |
| 13 | 03/06 | 12:00 | 37 | 20 | 51 | 30.64 | S | 4 | 0.00 |
| 14 | 03/06 | 11:00 | 35 | 18 | 51 | 30.65 | WSW | 3 | 0.00 |
| 15 | 03/06 | 10:00 | 33 | 18 | 55 | 30.66 | S | 5 | 0.00 |
| 16 | 03/06 | 09:00 | 31 | 17 | 58 | 30.67 | SSW | 3 | 0.00 |
| 17 | 03/06 | 08:00 | 27 | 18 | 69 | 30.65 | SE | 2 | 0.00 |
| 18 | 03/06 | 07:00 | 22 | 14 | 74 | 30.64 | SSE | 2 | 0.00 |
| 19 | 03/06 | 06:00 | 22 | 14 | 73 | 30.61 | SW | 1 | 0.00 |
| 20 | 03/06 | 05:00 | 23 | 12 | 65 | 30.57 | SSE | 0 | 0.00 |
| 21 | 03/06 | 04:00 | 25 | 12 | 59 | 30.54 | WSW | 2 | 0.00 |
| 22 | 03/06 | 03:00 | 26 | 12 | 56 | 30.52 | N | 6 | 0.00 |
| 23 | 03/06 | 02:00 | 27 | 13 | 56 | 30.51 | WSW | 10 | 0.00 |
| 24 | 03/06 | 01:00 | 27 | 13 | 56 | 30.47 | W | 4 | 0.00 |